Terminal Aerodrome Forecast
Issued by NWS

Home | Current Version | Previous Version | Text Only | Print | Product List | Glossary On
Versions: 1 2 3 4 5 6 7 8 9 10 11 12 13 14 15 16 17 18
000
FTUS43 KIND 261800 AAA
TAFHUF
TAF AMD
KHUF 261840Z 2619/2718 19009KT P6SM BKN025
     FM270000 21007KT P6SM VCTS BKN040CB
     FM270200 19005KT 3SM TSRA BKN040CB
     FM270800 21007KT P6SM BKN015=

USA.gov is the U.S. government's official web portal to all federal, state and local government web resources and services.